Time;durP1;ratioP1;P1;durP2;ratioP2;P2;SDS_P1;SDS_P2;PMS_P1;PMS_P2;Temp;Humidity;BMP_temperature;BMP_pressure;BME280_temperature;BME280_humidity;BME280_pressure;Samples;Min_cycle;Max_cycle;Signal;HPM_P1;HPM_P2
2022/06/09 00:00:17;;;;;;;11.88;4.30;;;;;;;14.55;100.00;100121.31;5050938;28;20124;-82
2022/06/09 00:02:48;;;;;;;12.40;4.75;;;;;;;14.33;100.00;100117.41;5049585;28;20430;-80
2022/06/09 00:05:15;;;;;;;11.18;4.20;;;;;;;14.41;100.00;100130.06;5050854;28;20064;-82
2022/06/09 00:07:45;;;;;;;12.48;4.25;;;;;;;14.35;100.00;100135.75;5051628;28;20136;-82
2022/06/09 00:10:18;;;;;;;13.93;4.90;;;;;;;14.51;100.00;100146.16;5047862;28;20084;-82
2022/06/09 00:12:45;;;;;;;11.70;4.60;;;;;;;14.58;100.00;100132.53;5041547;28;20041;-81
2022/06/09 00:15:13;;;;;;;13.00;5.50;;;;;;;14.47;100.00;100129.69;5052492;28;20406;-81
2022/06/09 00:17:41;;;;;;;11.13;3.97;;;;;;;14.47;100.00;100145.50;5051993;28;20521;-81
2022/06/09 00:20:11;;;;;;;12.20;4.88;;;;;;;14.50;100.00;100142.69;5052793;28;20465;-81
2022/06/09 00:22:39;;;;;;;12.90;4.82;;;;;;;14.33;100.00;100130.56;5050248;28;20041;-82
2022/06/09 00:25:06;;;;;;;12.60;3.80;;;;;;;14.38;100.00;100149.56;5051847;28;20045;-81
2022/06/09 00:27:34;;;;;;;13.45;5.05;;;;;;;14.10;100.00;100112.75;5052063;28;20660;-81
2022/06/09 00:30:03;;;;;;;14.45;4.90;;;;;;;14.46;100.00;100153.50;5051223;28;20053;-81
2022/06/09 00:32:30;;;;;;;14.82;5.22;;;;;;;14.46;100.00;100132.44;5047468;28;20045;-81
2022/06/09 00:34:57;;;;;;;12.02;4.38;;;;;;;14.41;100.00;100123.03;5052518;28;20410;-81
2022/06/09 00:37:24;;;;;;;13.65;4.72;;;;;;;14.64;100.00;100135.72;5051898;28;20048;-81
2022/06/09 00:39:51;;;;;;;8.88;3.30;;;;;;;14.77;100.00;100155.91;5051179;28;20056;-81
2022/06/09 00:42:18;;;;;;;12.10;4.40;;;;;;;14.56;100.00;100154.63;5045972;28;20479;-81
2022/06/09 00:44:44;;;;;;;14.10;4.80;;;;;;;14.53;100.00;100149.53;5050946;28;20052;-82
2022/06/09 00:47:26;;;;;;;14.98;5.22;;;;;;;14.31;100.00;100129.81;5050643;28;20051;-82
2022/06/09 00:49:53;;;;;;;13.77;4.90;;;;;;;14.63;100.00;100163.84;5049995;28;20048;-81
2022/06/09 00:52:24;;;;;;;10.15;3.78;;;;;;;14.76;100.00;100158.63;5049460;28;20041;-81
2022/06/09 00:54:57;;;;;;;14.05;4.75;;;;;;;14.31;100.00;100165.84;5050057;28;20047;-81
2022/06/09 00:57:31;;;;;;;12.27;4.75;;;;;;;14.34;100.00;100144.56;5050482;28;20505;-81
2022/06/09 01:00:04;;;;;;;13.23;4.43;;;;;;;14.69;100.00;100162.63;5053988;28;20044;-80
2022/06/09 01:02:30;;;;;;;12.60;4.60;;;;;;;14.50;100.00;100140.06;5049984;28;20072;-81
2022/06/09 01:05:02;;;;;;;9.82;3.20;;;;;;;14.76;100.00;100169.19;5037903;28;20123;-81
2022/06/09 01:07:38;;;;;;;11.60;3.83;;;;;;;14.45;100.00;100147.41;5050518;28;20089;-81
2022/06/09 01:10:06;;;;;;;13.48;4.43;;;;;;;14.57;100.00;100154.53;5036637;28;20049;-81
2022/06/09 01:12:36;;;;;;;15.15;4.38;;;;;;;14.72;100.00;100172.97;5049447;28;20049;-81
2022/06/09 01:15:12;;;;;;;12.18;4.25;;;;;;;14.69;100.00;100173.16;5050497;28;20049;-81
2022/06/09 01:17:38;;;;;;;12.13;4.00;;;;;;;14.83;100.00;100180.19;5049130;28;20049;-81
2022/06/09 01:20:15;;;;;;;9.52;4.40;;;;;;;14.71;100.00;100180.00;5049199;28;20059;-81
2022/06/09 01:23:41;;;;;;;11.82;4.28;;;;;;;14.67;100.00;100164.50;5041548;28;20137;-80
2022/06/09 01:26:37;;;;;;;9.82;4.57;;;;;;;14.43;100.00;100170.34;5000013;28;20057;-81
2022/06/09 01:29:31;;;;;;;12.55;4.97;;;;;;;14.62;100.00;100175.31;5064078;28;20479;-81
2022/06/09 01:32:19;;;;;;;14.48;5.38;;;;;;;14.49;100.00;100171.75;5045419;28;20091;-81
2022/06/09 01:35:04;;;;;;;13.75;6.10;;;;;;;14.38;100.00;100180.34;5051118;28;20045;-81
2022/06/09 01:37:36;;;;;;;12.70;4.55;;;;;;;14.46;100.00;100154.34;5050204;28;20057;-81
2022/06/09 01:40:06;;;;;;;11.15;4.40;;;;;;;14.46;100.00;100166.66;5049800;28;20053;-81
2022/06/09 01:42:44;;;;;;;10.10;3.70;;;;;;;14.58;100.00;100165.94;5052061;28;20487;-81
2022/06/09 01:45:26;;;;;;;10.85;4.40;;;;;;;14.50;100.00;100155.84;5036388;28;20068;-81
2022/06/09 01:47:53;;;;;;;12.85;5.00;;;;;;;14.63;100.00;100168.28;5050068;28;20053;-81
2022/06/09 01:50:34;;;;;;;14.20;5.88;;;;;;;14.54;100.00;100152.06;5048856;28;20053;-81
2022/06/09 01:53:06;;;;;;;12.65;5.10;;;;;;;14.51;100.00;100173.34;5054084;28;20049;-81
2022/06/09 01:55:39;;;;;;;15.30;5.72;;;;;;;14.42;100.00;100174.75;5036523;28;20052;-81
2022/06/09 01:58:10;;;;;;;9.70;4.97;;;;;;;14.35;100.00;100144.47;5034963;28;20399;-79
2022/06/09 02:00:37;;;;;;;12.75;5.13;;;;;;;14.48;100.00;100162.16;5052423;28;20047;-80
2022/06/09 02:03:08;;;;;;;13.15;5.13;;;;;;;14.65;100.00;100188.31;5036426;28;20046;-79
2022/06/09 02:05:43;;;;;;;14.65;6.18;;;;;;;14.55;100.00;100185.38;5047395;28;20053;-79
2022/06/09 02:08:14;;;;;;;14.20;5.63;;;;;;;14.71;100.00;100187.06;5049360;28;20072;-80
2022/06/09 02:10:46;;;;;;;13.25;5.03;;;;;;;14.65;100.00;100184.84;5049283;28;20053;-79
2022/06/09 02:13:25;;;;;;;13.55;4.43;;;;;;;14.78;100.00;100188.38;5030235;28;20123;-80
2022/06/09 02:15:54;;;;;;;10.80;5.07;;;;;;;14.49;100.00;100161.22;5049209;28;20048;-81
2022/06/09 02:18:24;;;;;;;14.00;5.78;;;;;;;14.54;100.00;100211.81;5050288;28;20075;-81
2022/06/09 02:20:58;;;;;;;12.43;5.25;;;;;;;14.48;100.00;100204.28;5050190;28;20048;-81
2022/06/09 02:23:25;;;;;;;12.48;5.18;;;;;;;14.39;100.00;100203.91;5054345;28;20052;-81
2022/06/09 02:25:52;;;;;;;13.15;5.50;;;;;;;14.54;100.00;100188.97;5051518;28;20060;-82
2022/06/09 02:28:19;;;;;;;16.27;6.82;;;;;;;14.36;100.00;100200.63;5061516;28;20051;-81
2022/06/09 02:30:46;;;;;;;15.63;5.60;;;;;;;14.39;100.00;100208.34;5052490;28;20049;-81
2022/06/09 02:33:17;;;;;;;16.42;5.97;;;;;;;14.50;100.00;100194.50;5048547;28;20080;-81
2022/06/09 02:35:46;;;;;;;15.20;6.53;;;;;;;14.55;100.00;100200.34;5053190;28;20056;-82
2022/06/09 02:38:13;;;;;;;13.07;5.03;;;;;;;14.42;100.00;100187.09;5052128;28;20081;-82
2022/06/09 02:40:40;;;;;;;13.23;4.68;;;;;;;14.47;100.00;100168.38;5057269;28;20051;-82
2022/06/09 02:43:06;;;;;;;14.35;6.03;;;;;;;14.72;100.00;100202.78;5049117;28;20501;-82
2022/06/09 02:45:34;;;;;;;15.02;6.03;;;;;;;14.69;100.00;100194.22;5052263;28;20060;-81
2022/06/09 02:48:01;;;;;;;15.85;6.22;;;;;;;14.44;100.00;100167.59;5052530;28;20485;-81
2022/06/09 02:50:29;;;;;;;14.88;5.75;;;;;;;14.61;100.00;100203.47;5052800;28;20472;-81
2022/06/09 02:52:58;;;;;;;14.02;5.30;;;;;;;14.39;100.00;100158.31;5053141;28;20044;-81
2022/06/09 02:55:25;;;;;;;15.25;5.85;;;;;;;14.42;100.00;100187.94;5066287;28;20052;-82
2022/06/09 02:57:52;;;;;;;12.95;5.70;;;;;;;14.51;100.00;100191.78;5060111;28;20047;-81
2022/06/09 03:00:19;;;;;;;11.15;4.80;;;;;;;14.39;100.00;100208.34;5051045;28;20052;-82
2022/06/09 03:02:58;;;;;;;14.65;6.15;;;;;;;14.42;100.00;100200.25;5043426;28;20419;-82
2022/06/09 03:05:27;;;;;;;14.65;5.30;;;;;;;14.36;100.00;100188.31;5052278;28;20080;-82
2022/06/09 03:07:55;;;;;;;12.35;5.00;;;;;;;14.70;100.00;100214.38;5053005;28;20053;-82
2022/06/09 03:10:22;;;;;;;12.52;5.53;;;;;;;14.66;100.00;100211.09;5053194;28;20049;-82
2022/06/09 03:12:49;;;;;;;13.20;5.10;;;;;;;14.54;100.00;100196.84;5042807;28;20120;-82
2022/06/09 03:15:18;;;;;;;10.25;4.00;;;;;;;14.68;100.00;100211.84;5049769;28;20406;-82
2022/06/09 03:17:46;;;;;;;13.05;5.07;;;;;;;14.52;100.00;100205.78;5052673;28;20045;-82
2022/06/09 03:20:18;;;;;;;12.52;5.68;;;;;;;14.32;100.00;100202.59;5051713;28;20052;-82
2022/06/09 03:22:45;;;;;;;17.48;7.57;;;;;;;14.20;100.00;100211.25;5049609;28;20529;-82
2022/06/09 03:25:12;;;;;;;15.60;5.65;;;;;;;14.27;100.00;100217.88;5051964;28;20044;-83
2022/06/09 03:27:39;;;;;;;12.85;5.25;;;;;;;14.12;100.00;100214.34;5049710;28;20672;-82
2022/06/09 03:30:07;;;;;;;13.35;6.45;;;;;;;14.17;100.00;100217.56;5052347;28;20380;-82
2022/06/09 03:32:34;;;;;;;13.27;5.97;;;;;;;14.24;100.00;100207.50;5052058;28;20053;-82
2022/06/09 03:35:01;;;;;;;14.73;5.30;;;;;;;14.42;100.00;100213.44;5053145;28;20052;-82
2022/06/09 03:37:28;;;;;;;14.63;5.43;;;;;;;14.27;100.00;100193.28;5051290;28;20053;-82
2022/06/09 03:39:55;;;;;;;14.27;5.72;;;;;;;14.31;100.00;100205.34;5038502;28;20049;-82
2022/06/09 03:42:22;;;;;;;17.80;7.95;;;;;;;14.29;100.00;100196.69;5051081;28;20425;-82
2022/06/09 03:44:48;;;;;;;15.75;6.55;;;;;;;14.49;100.00;100225.28;5052776;28;20047;-82
2022/06/09 03:47:15;;;;;;;17.00;7.30;;;;;;;14.03;100.00;100209.66;5052232;28;20053;-83
2022/06/09 03:49:42;;;;;;;20.35;6.90;;;;;;;14.17;100.00;100222.00;5064513;28;20140;-82
2022/06/09 03:52:09;;;;;;;17.52;7.13;;;;;;;14.29;100.00;100228.28;5050360;28;20408;-82
2022/06/09 03:54:36;;;;;;;14.00;5.63;;;;;;;14.54;100.00;100211.81;5052438;28;20095;-82
2022/06/09 03:57:04;;;;;;;16.13;6.53;;;;;;;14.50;100.00;100221.72;5053649;28;20136;-82
2022/06/09 03:59:31;;;;;;;14.88;6.72;;;;;;;14.06;100.00;100204.22;5051694;28;20695;-82
2022/06/09 04:01:58;;;;;;;16.58;6.45;;;;;;;14.22;100.00;100225.19;5050593;28;20055;-82
2022/06/09 04:04:25;;;;;;;15.05;5.78;;;;;;;14.49;100.00;100227.06;5044621;28;20049;-82
2022/06/09 04:06:52;;;;;;;15.30;5.85;;;;;;;14.52;100.00;100243.53;5052187;28;20055;-82
2022/06/09 04:09:19;;;;;;;9.85;4.43;;;;;;;14.49;100.00;100203.38;5043697;28;20045;-82
2022/06/09 04:11:46;;;;;;;15.93;6.60;;;;;;;14.52;100.00;100230.34;5047497;28;20060;-82
2022/06/09 04:14:13;;;;;;;12.80;5.90;;;;;;;14.40;100.00;100231.94;5051894;28;20040;-82
2022/06/09 04:16:45;;;;;;;15.70;7.88;;;;;;;14.30;100.00;100238.72;5051508;28;20063;-82
2022/06/09 04:19:16;;;;;;;18.35;8.90;;;;;;;14.15;100.00;100243.13;5050896;28;20049;-82
2022/06/09 04:21:43;;;;;;;16.05;6.45;;;;;;;14.46;100.00;100236.00;5051452;28;20045;-82
2022/06/09 04:24:11;;;;;;;14.65;6.63;;;;;;;14.48;100.00;100239.38;5050862;28;20045;-82
2022/06/09 04:26:40;;;;;;;15.80;7.43;;;;;;;14.23;100.00;100251.41;5050812;28;20049;-82
2022/06/09 04:29:11;;;;;;;14.27;7.75;;;;;;;14.09;100.00;100256.66;5050420;28;20059;-82
2022/06/09 04:31:40;;;;;;;19.63;8.25;;;;;;;14.41;100.00;100259.13;5050782;28;20045;-82
2022/06/09 04:34:07;;;;;;;12.98;5.65;;;;;;;14.55;100.00;100234.56;5050229;28;20052;-82
2022/06/09 04:36:34;;;;;;;15.95;7.10;;;;;;;14.26;100.00;100199.53;5050975;28;20051;-82
2022/06/09 04:39:02;;;;;;;14.60;5.85;;;;;;;14.69;100.00;100254.84;5051244;28;20051;-82
2022/06/09 04:41:29;;;;;;;18.60;9.02;;;;;;;14.61;100.00;100258.78;5051411;28;20047;-81
2022/06/09 04:43:57;;;;;;;17.05;7.05;;;;;;;14.60;100.00;100265.00;5057401;28;20110;-81
2022/06/09 04:46:25;;;;;;;19.52;7.97;;;;;;;14.27;100.00;100280.19;5048550;28;20059;-82
2022/06/09 04:48:53;;;;;;;17.23;7.65;;;;;;;14.70;100.00;100278.47;5047415;28;20140;-82
2022/06/09 04:51:21;;;;;;;20.23;8.10;;;;;;;14.63;100.00;100279.78;5046328;28;20045;-82
2022/06/09 04:53:48;;;;;;;20.92;9.00;;;;;;;14.34;100.00;100282.38;5052766;28;20422;-82
2022/06/09 04:56:17;;;;;;;16.63;7.50;;;;;;;14.17;100.00;100253.59;5051833;28;20136;-82
2022/06/09 04:58:44;;;;;;;16.88;8.30;;;;;;;14.21;100.00;100284.88;5050080;28;20048;-82
2022/06/09 05:01:19;;;;;;;15.07;6.53;;;;;;;14.29;100.00;100281.81;5050772;28;20384;-82
2022/06/09 05:03:48;;;;;;;16.13;7.30;;;;;;;14.34;100.00;100268.34;5040952;28;20128;-82
2022/06/09 05:06:18;;;;;;;16.38;6.90;;;;;;;14.74;100.00;100276.47;5042392;28;20060;-82
2022/06/09 05:08:46;;;;;;;19.77;8.10;;;;;;;14.63;100.00;100271.88;5040624;28;20491;-82
2022/06/09 05:11:13;;;;;;;16.23;7.15;;;;;;;14.10;100.00;100226.78;5039972;28;20080;-82
2022/06/09 05:13:40;;;;;;;16.10;7.75;;;;;;;14.17;100.00;100258.84;5044899;28;20051;-82
2022/06/09 05:16:08;;;;;;;19.10;7.75;;;;;;;14.49;100.00;100279.75;5043531;28;20046;-82
2022/06/09 05:18:37;;;;;;;16.52;6.93;;;;;;;14.51;100.00;100260.25;5044117;28;20061;-82
2022/06/09 05:21:06;;;;;;;16.50;7.07;;;;;;;14.37;100.00;100271.63;5043779;28;20131;-82
2022/06/09 05:23:33;;;;;;;12.02;5.32;;;;;;;14.59;100.00;100265.94;5052854;28;20056;-82
2022/06/09 05:26:03;;;;;;;15.75;7.57;;;;;;;14.65;100.00;100263.88;5051096;28;20045;-82
2022/06/09 05:28:31;;;;;;;12.27;5.97;;;;;;;14.67;100.00;100270.72;5048428;28;20407;-82
2022/06/09 05:30:59;;;;;;;17.70;7.18;;;;;;;14.77;100.00;100263.94;5051946;28;20049;-82
2022/06/09 05:33:28;;;;;;;13.70;6.15;;;;;;;15.08;100.00;100277.81;5052572;28;20051;-82
2022/06/09 05:35:55;;;;;;;16.33;6.63;;;;;;;14.84;100.00;100269.69;5049422;28;20083;-82
2022/06/09 05:46:45;;;;;;;18.02;8.65;;;;;;;14.40;100.00;100255.66;5042887;28;20052;-82
2022/06/09 05:49:16;;;;;;;13.07;5.80;;;;;;;14.60;100.00;100286.06;5043924;28;20132;-80
2022/06/09 05:51:43;;;;;;;14.93;5.45;;;;;;;14.56;100.00;100291.59;5041934;28;20055;-82
2022/06/09 05:54:10;;;;;;;13.32;6.18;;;;;;;14.48;100.00;100249.06;5046423;28;20044;-82
2022/06/09 05:56:37;;;;;;;15.20;7.20;;;;;;;14.49;100.00;100263.94;5047569;28;20041;-81
2022/06/09 05:59:04;;;;;;;15.95;6.47;;;;;;;14.53;100.00;100263.66;5044190;28;20088;-82
2022/06/09 06:01:31;;;;;;;14.85;5.88;;;;;;;14.52;100.00;100258.47;5049543;28;20128;-82
2022/06/09 06:03:59;;;;;;;13.75;6.28;;;;;;;14.57;100.00;100270.44;5052417;28;20038;-82
2022/06/09 06:06:34;;;;;;;13.27;6.47;;;;;;;14.74;100.00;100239.59;5054309;28;20053;-82
2022/06/09 06:09:21;;;;;;;11.63;5.40;;;;;;;15.12;100.00;100252.09;5055994;28;20052;-82
2022/06/09 06:11:49;;;;;;;12.10;5.35;;;;;;;15.29;100.00;100275.59;5052316;28;20756;-81
2022/06/09 06:14:17;;;;;;;11.73;5.63;;;;;;;15.11;100.00;100287.34;5053603;28;20052;-82
2022/06/09 06:16:44;;;;;;;10.90;4.95;;;;;;;15.06;100.00;100269.16;5064158;28;20055;-82
2022/06/09 06:19:14;;;;;;;12.73;5.57;;;;;;;15.17;100.00;100281.66;5070218;28;20056;-82
2022/06/09 06:21:41;;;;;;;12.85;6.25;;;;;;;15.23;100.00;100283.06;5051273;28;20134;-82
2022/06/09 06:24:08;;;;;;;12.88;5.82;;;;;;;15.02;100.00;100286.13;5051830;28;20048;-82
2022/06/09 06:26:35;;;;;;;13.38;6.22;;;;;;;14.82;100.00;100290.03;5051954;28;20049;-83
2022/06/09 06:29:05;;;;;;;15.70;7.30;;;;;;;15.16;100.00;100301.09;5050157;28;20415;-84
2022/06/09 06:31:32;;;;;;;13.48;5.90;;;;;;;15.11;100.00;100297.88;5068990;28;20406;-83
2022/06/09 06:33:59;;;;;;;12.95;6.00;;;;;;;15.13;100.00;100294.19;5046626;28;20049;-83
2022/06/09 06:36:27;;;;;;;14.35;5.72;;;;;;;14.98;100.00;100303.94;5051422;28;20132;-83
2022/06/09 06:38:54;;;;;;;13.35;7.00;;;;;;;14.97;100.00;100310.13;5065551;28;20063;-83
2022/06/09 06:41:21;;;;;;;13.38;6.43;;;;;;;15.04;100.00;100307.13;5054700;28;20132;-83
2022/06/09 06:43:49;;;;;;;12.00;5.10;;;;;;;14.86;100.00;100317.88;5051368;28;20060;-83
2022/06/09 06:46:16;;;;;;;10.77;5.03;;;;;;;14.90;100.00;100293.00;5050984;28;20072;-83
2022/06/09 06:48:44;;;;;;;12.63;5.90;;;;;;;15.07;100.00;100322.72;5052820;28;20045;-83
2022/06/09 06:51:12;;;;;;;16.02;5.60;;;;;;;15.09;100.00;100313.81;5068444;28;20543;-83
2022/06/09 06:53:39;;;;;;;10.82;4.78;;;;;;;15.20;100.00;100302.56;5051102;28;20094;-83
2022/06/09 06:56:08;;;;;;;13.95;6.93;;;;;;;14.83;100.00;100325.13;5053037;28;20131;-83
2022/06/09 06:58:35;;;;;;;15.05;7.43;;;;;;;14.99;100.00;100312.69;5052395;28;20049;-83
2022/06/09 07:01:03;;;;;;;13.27;6.53;;;;;;;15.04;100.00;100325.59;5052766;28;20061;-83
2022/06/09 07:03:31;;;;;;;12.80;5.78;;;;;;;15.16;100.00;100299.28;5051031;28;20053;-83
2022/06/09 07:06:02;;;;;;;11.18;5.38;;;;;;;15.39;100.00;100312.78;5051860;28;20115;-83
2022/06/09 07:08:29;;;;;;;13.40;5.70;;;;;;;15.46;100.00;100303.53;5051803;28;20045;-83
2022/06/09 07:10:56;;;;;;;11.63;5.43;;;;;;;15.46;100.00;100307.97;5052414;28;20065;-83
2022/06/09 07:13:24;;;;;;;15.55;6.35;;;;;;;15.60;100.00;100313.19;5050189;28;20087;-82
2022/06/09 07:15:52;;;;;;;11.88;5.72;;;;;;;15.49;100.00;100324.44;5051318;28;20073;-81
2022/06/09 07:18:26;;;;;;;12.27;6.38;;;;;;;15.40;100.00;100319.75;5046062;28;20135;-80
2022/06/09 07:20:55;;;;;;;14.23;6.47;;;;;;;15.52;100.00;100321.59;5052552;28;20045;-80
2022/06/09 07:23:23;;;;;;;15.73;6.47;;;;;;;15.77;100.00;100337.66;5047811;28;20124;-81
2022/06/09 07:25:49;;;;;;;17.77;8.23;;;;;;;15.49;100.00;100331.50;5069893;28;20478;-81
2022/06/09 07:28:16;;;;;;;15.60;8.32;;;;;;;15.27;100.00;100324.97;5045590;28;20049;-81
2022/06/09 07:30:44;;;;;;;13.55;6.55;;;;;;;15.73;100.00;100314.06;5051868;28;20088;-81
2022/06/09 07:33:12;;;;;;;13.82;6.57;;;;;;;15.67;100.00;100332.09;5058689;28;20056;-80
2022/06/09 07:35:39;;;;;;;13.77;7.07;;;;;;;15.51;100.00;100337.50;5051232;28;20089;-81
2022/06/09 07:38:09;;;;;;;15.00;8.10;;;;;;;15.55;100.00;100345.16;5050516;28;20053;-81
2022/06/09 07:40:38;;;;;;;16.45;7.10;;;;;;;15.52;100.00;100365.59;5051289;28;20051;-80
2022/06/09 07:43:05;;;;;;;21.50;9.55;;;;;;;15.06;100.00;100363.25;5062316;28;20053;-80
2022/06/09 07:45:32;;;;;;;18.65;8.75;;;;;;;15.07;100.00;100349.09;5048271;28;20067;-80
2022/06/09 07:48:00;;;;;;;16.33;6.47;;;;;;;15.47;100.00;100338.66;5048883;28;20049;-80
2022/06/09 07:50:28;;;;;;;15.68;6.85;;;;;;;15.23;100.00;100370.09;5052545;28;20380;-81
2022/06/09 07:52:55;;;;;;;16.98;8.77;;;;;;;14.93;100.00;100353.47;5049482;28;20494;-80
2022/06/09 07:55:22;;;;;;;14.88;7.10;;;;;;;15.35;100.00;100371.94;5051402;28;20076;-80
2022/06/09 07:57:50;;;;;;;19.83;9.30;;;;;;;15.01;100.00;100347.69;5050229;28;20048;-80
2022/06/09 08:00:20;;;;;;;19.27;7.00;;;;;;;15.10;100.00;100331.31;5050121;28;20048;-80
2022/06/09 08:02:47;;;;;;;17.70;7.20;;;;;;;15.49;100.00;100361.38;5049855;28;20073;-80
2022/06/09 08:05:16;;;;;;;18.38;7.40;;;;;;;15.54;100.00;100375.09;5050947;28;20079;-80
2022/06/09 08:07:43;;;;;;;16.58;6.50;;;;;;;15.45;100.00;100362.50;5047505;28;20055;-80
2022/06/09 08:10:17;;;;;;;11.40;4.65;;;;;;;15.61;100.00;100354.44;5050284;28;20056;-80
2022/06/09 08:12:45;;;;;;;14.70;7.70;;;;;;;15.67;100.00;100364.63;5039950;28;20044;-81
2022/06/09 08:15:12;;;;;;;16.95;7.82;;;;;;;15.51;100.00;100337.50;5050952;28;20045;-80
2022/06/09 08:17:39;;;;;;;19.70;7.38;;;;;;;15.22;100.00;100366.59;5051063;28;20079;-81
2022/06/09 08:20:08;;;;;;;15.27;7.13;;;;;;;15.17;100.00;100366.91;5049039;28;20394;-81
2022/06/09 08:22:40;;;;;;;17.67;6.97;;;;;;;15.27;100.00;100368.97;5048158;28;20055;-80
2022/06/09 08:25:12;;;;;;;17.83;6.97;;;;;;;15.61;100.00;100351.81;5049251;28;20049;-80
2022/06/09 08:27:39;;;;;;;18.58;8.00;;;;;;;15.57;100.00;100382.00;5040200;28;20052;-80
2022/06/09 08:30:08;;;;;;;15.02;6.32;;;;;;;15.79;100.00;100373.56;5049274;28;20131;-81
2022/06/09 08:32:35;;;;;;;16.85;7.07;;;;;;;15.18;100.00;100368.59;5047463;28;20086;-81
2022/06/09 08:35:04;;;;;;;15.90;5.63;;;;;;;15.27;100.00;100376.88;5051284;28;20059;-81
2022/06/09 08:37:30;;;;;;;15.00;7.00;;;;;;;15.26;100.00;100369.91;5049477;28;20136;-80
2022/06/09 08:39:57;;;;;;;15.20;6.32;;;;;;;15.84;100.00;100362.72;5049776;28;20095;-81
2022/06/09 08:43:00;;;;;;;20.45;7.05;;;;;;;15.52;100.00;100365.59;5048702;28;20047;-81
2022/06/09 08:45:38;;;;;;;18.80;6.95;;;;;;;15.48;100.00;100364.13;5037962;28;20194;-80
2022/06/09 08:48:10;;;;;;;15.85;7.07;;;;;;;15.39;100.00;100373.47;5049659;28;20057;-80
2022/06/09 08:50:54;;;;;;;18.38;6.65;;;;;;;15.43;100.00;100364.41;5048547;28;20056;-81
2022/06/09 08:53:29;;;;;;;13.65;5.63;;;;;;;15.70;100.00;100351.22;5051738;28;20055;-81
2022/06/09 08:56:11;;;;;;;13.88;6.18;;;;;;;15.83;100.00;100363.63;5050738;28;20079;-81
2022/06/09 08:58:42;;;;;;;15.25;5.55;;;;;;;15.97;100.00;100363.59;5044515;28;20391;-81
2022/06/09 09:01:22;;;;;;;12.00;4.85;;;;;;;16.39;100.00;100353.72;5049897;28;20067;-81
2022/06/09 09:03:56;;;;;;;12.15;5.15;;;;;;;16.09;100.00;100352.19;5050210;28;20139;-81
2022/06/09 09:06:23;;;;;;;13.48;4.70;;;;;;;16.67;100.00;100362.41;5050792;28;20660;-81
2022/06/09 09:09:22;;;;;;;9.52;4.18;;;;;;;17.21;100.00;100350.72;5047623;28;20360;-81
2022/06/09 09:11:49;;;;;;;13.35;5.22;;;;;;;16.83;100.00;100367.50;5040143;28;20055;-81
2022/06/09 09:14:28;;;;;;;12.13;5.05;;;;;;;17.13;100.00;100350.44;5049230;28;20044;-81
2022/06/09 09:16:57;;;;;;;14.63;6.05;;;;;;;17.06;100.00;100352.69;5049211;28;20044;-81
2022/06/09 09:19:40;;;;;;;13.85;5.32;;;;;;;17.64;100.00;100359.06;5049199;28;20111;-81
2022/06/09 09:22:17;;;;;;;11.20;4.25;;;;;;;17.89;100.00;100364.41;5045630;28;20041;-81
2022/06/09 09:25:08;;;;;;;11.32;4.10;;;;;;;18.02;100.00;100357.22;5049594;28;20063;-82
2022/06/09 09:27:52;;;;;;;11.13;4.22;;;;;;;17.67;100.00;100371.25;5048735;28;20048;-81
2022/06/09 09:31:01;;;;;;;9.20;4.03;;;;;;;18.08;100.00;100377.97;5049478;28;20384;-81
2022/06/09 09:33:29;;;;;;;10.23;4.63;;;;;;;17.97;100.00;100367.31;5031711;28;20044;-81
2022/06/09 09:36:02;;;;;;;8.23;3.15;;;;;;;17.96;100.00;100362.97;5049099;28;20077;-81
2022/06/09 09:38:42;;;;;;;8.68;3.45;;;;;;;17.57;100.00;100362.28;5052594;28;20405;-81
2022/06/09 09:41:27;;;;;;;7.63;2.90;;;;;;;17.97;100.00;100369.94;5053318;28;20479;-81
2022/06/09 09:43:55;;;;;;;6.93;2.38;;;;;;;17.61;100.00;100366.38;5051484;28;20059;-80
2022/06/09 09:46:32;;;;;;;6.28;2.45;;;;;;;17.60;100.00;100383.22;5053252;28;20084;-81
2022/06/09 09:49:15;;;;;;;7.82;2.38;;;;;;;17.42;100.00;100373.03;5051174;28;20055;-81
2022/06/09 09:51:43;;;;;;;5.03;1.90;;;;;;;17.83;100.00;100365.66;5051852;28;20077;-81
2022/06/09 09:54:24;;;;;;;6.28;2.00;;;;;;;18.35;100.00;100358.28;5063702;28;20045;-81
2022/06/09 09:57:22;;;;;;;5.28;1.83;;;;;;;18.12;100.00;100378.56;5054614;28;20053;-81
2022/06/09 09:59:54;;;;;;;6.22;2.20;;;;;;;17.77;100.00;100389.94;5052114;28;20051;-82
2022/06/09 10:09:05;;;;;;;6.82;2.78;;;;;;;18.15;100.00;100373.88;5044602;28;20075;-80
2022/06/09 10:11:53;;;;;;;9.23;3.00;;;;;;;17.64;100.00;100390.00;5053267;28;20052;-80
2022/06/09 10:14:42;;;;;;;7.95;2.90;;;;;;;17.78;100.00;100400.41;5049269;28;20047;-81
2022/06/09 10:17:44;;;;;;;8.43;3.00;;;;;;;17.35;100.00;100394.72;5050030;28;20406;-81
2022/06/09 10:20:41;;;;;;;8.18;3.10;;;;;;;16.97;100.00;100382.44;5033582;28;20183;-81
2022/06/09 10:23:17;;;;;;;7.70;2.80;;;;;;;17.46;100.00;100406.25;5051881;28;20053;-81
2022/06/09 10:26:01;;;;;;;6.50;2.35;;;;;;;17.48;100.00;100406.13;5053969;28;20348;-80
2022/06/09 10:28:46;;;;;;;;;;;;;;;18.14;100.00;100406.63;5045866;28;20056;-81
2022/06/09 10:31:19;;;;;;;7.50;2.70;;;;;;;17.77;100.00;100409.31;5051111;28;19964;-80
2022/06/09 10:33:45;;;;;;;7.05;2.70;;;;;;;17.87;100.00;100403.41;5049297;28;20045;-80
2022/06/09 10:36:28;;;;;;;6.70;2.83;;;;;;;17.89;100.00;100410.25;5052160;28;20045;-80
2022/06/09 10:39:02;;;;;;;6.00;2.38;;;;;;;18.05;100.00;100412.63;5050140;28;20128;-81
2022/06/09 10:41:42;;;;;;;6.65;2.45;;;;;;;17.74;100.00;100398.97;5049925;28;20053;-81
2022/06/09 10:44:33;;;;;;;6.47;2.30;;;;;;;17.58;100.00;100399.22;5053312;28;20079;-81
2022/06/09 10:55:54;;;;;;;8.07;2.55;;;;;;;17.51;100.00;100410.34;5052914;28;20732;-81
2022/06/09 10:58:31;;;;;;;5.03;1.95;;;;;;;17.38;100.00;100407.75;5044977;28;20045;-81
2022/06/09 11:00:59;;;;;;;4.95;1.80;;;;;;;17.77;100.00;100401.38;5060344;28;20048;-81
2022/06/09 11:03:35;;;;;;;5.43;2.00;;;;;;;17.64;100.00;100405.88;5052495;28;20084;-81
2022/06/09 11:06:22;;;;;;;4.85;1.70;;;;;;;18.43;100.00;100408.88;5052463;28;20049;-81
2022/06/09 11:09:30;;;;;;;3.58;1.58;;;;;;;18.06;100.00;100416.09;5052061;28;20045;-81
2022/06/09 11:12:23;;;;;;;3.75;1.50;;;;;;;19.03;100.00;100400.81;5050145;28;20106;-81
2022/06/09 11:15:34;;;;;;;4.15;1.50;;;;;;;19.00;100.00;100390.44;5050601;28;20045;-81
2022/06/09 11:18:46;;;;;;;3.30;1.30;;;;;;;19.32;100.00;100396.72;5053735;28;20139;-81
2022/06/09 11:21:21;;;;;;;3.60;1.50;;;;;;;19.54;100.00;100379.88;5036164;28;20045;-80
2022/06/09 11:24:10;;;;;;;5.07;1.48;;;;;;;19.71;100.00;100388.31;5050093;28;20044;-81
2022/06/09 11:27:16;;;;;;;4.28;1.50;;;;;;;18.73;100.00;100403.06;5051380;28;20049;-81
2022/06/09 11:29:57;;;;;;;5.40;1.67;;;;;;;18.05;100.00;100398.53;5038731;28;20049;-81
2022/06/09 11:32:38;;;;;;;5.45;1.48;;;;;;;17.69;100.00;100403.75;5044381;28;20053;-81
2022/06/09 11:35:40;;;;;;;6.28;1.83;;;;;;;17.06;100.00;100422.28;5051525;28;20546;-81
2022/06/09 11:38:40;;;;;;;5.32;2.05;;;;;;;17.20;100.00;100413.38;5038840;28;20136;-81
2022/06/09 11:41:25;;;;;;;3.50;1.42;;;;;;;17.43;100.00;100406.47;5047407;28;20059;-81
2022/06/09 11:44:27;;;;;;;6.18;2.33;;;;;;;17.50;100.00;100406.88;5044687;28;20126;-82
2022/06/09 11:46:59;;;;;;;6.55;1.92;;;;;;;17.63;100.00;100405.00;5048915;28;20059;-81
2022/06/09 11:49:33;;;;;;;5.95;1.98;;;;;;;17.42;100.00;100395.97;5051119;28;20055;-81
2022/06/09 11:52:10;;;;;;;6.07;2.03;;;;;;;18.14;100.00;100409.28;5049374;28;20123;-81
2022/06/09 11:54:50;;;;;;;3.78;1.60;;;;;;;17.84;100.00;100410.53;5051469;28;20045;-80
2022/06/09 11:57:16;;;;;;;6.85;2.30;;;;;;;18.46;100.00;100416.63;5050130;28;20403;-81
2022/06/09 12:00:02;;;;;;;6.05;1.88;;;;;;;18.05;100.00;100427.69;5049720;28;20060;-81